Time,TemperatureF,DewpointF,PressureIn,WindDirection,WindDirectionDegrees,WindSpeedMPH,WindSpeedGustMPH,Humidity,HourlyPrecipIn,Conditions,Clouds,dailyrainin,SoftwareType,DateUTC
2013-03-04 00:24:00,31.5,29.4,29.58,WNW,295,4.6,4.6,92,0.00,,,0.00,WeatherDisplay:10.37,2013-03-04 05:24:00,
2013-03-04 00:30:00,31.4,29.3,29.58,West,262,0.0,0.0,92,0.00,,,0.00,WeatherDisplay:10.37,2013-03-04 05:30:00,
2013-03-04 00:33:00,31.2,29.1,29.58,WNW,288,1.0,6.0,92,0.00,CLR,,0.00,WeatherDisplay:10.37,2013-03-04 05:33:00,
2013-03-04 00:36:00,31.2,29.1,29.58,West,259,0.0,0.0,92,0.00,,,0.00,WeatherDisplay:10.37,2013-03-04 05:36:00,
2013-03-04 00:38:00,31.2,29.1,29.58,West,276,1.0,5.0,92,0.00,CLR,,0.00,WeatherDisplay:10.37,2013-03-04 05:38:00,
2013-03-04 00:41:00,31.1,29.0,29.58,NNW,336,0.0,0.0,92,0.00,,,0.00,WeatherDisplay:10.37,2013-03-04 05:41:00,
2013-03-04 00:43:00,31.2,29.1,29.58,West,270,1.0,5.0,92,0.00,CLR,,0.00,WeatherDisplay:10.37,2013-03-04 05:43:00,
2013-03-04 00:48:00,31.0,28.9,29.58,NNW,336,0.0,2.0,92,0.00,,,0.00,WeatherDisplay:10.37,2013-03-04 05:48:00,
2013-03-04 00:53:00,30.9,28.8,29.58,NNW,335,0.0,2.0,92,0.00,,,0.00,WeatherDisplay:10.37,2013-03-04 05:53:00,
2013-03-04 00:58:00,30.8,28.8,29.58,NNW,335,0.0,1.0,92,0.00,,,0.00,WeatherDisplay:10.37,2013-03-04 05:58:00,
2013-03-04 01:03:00,30.7,28.7,29.59,NNW,332,0.0,2.0,92,0.00,,,0.00,WeatherDisplay:10.37,2013-03-04 06:03:00,
2013-03-04 01:08:00,30.7,28.7,29.59,NNW,327,0.0,1.0,92,0.00,,,0.00,WeatherDisplay:10.37,2013-03-04 06:08:00,
2013-03-04 01:13:00,30.7,28.7,29.59,NW,321,1.0,4.0,92,0.00,,,0.00,WeatherDisplay:10.37,2013-03-04 06:13:00,
2013-03-04 01:18:00,30.7,28.7,29.59,NW,309,1.0,2.0,92,0.00,,,0.00,WeatherDisplay:10.37,2013-03-04 06:18:00,
2013-03-04 01:23:00,30.7,28.7,29.59,WNW,291,0.0,1.0,92,0.00,,,0.00,WeatherDisplay:10.37,2013-03-04 06:23:00,
2013-03-04 01:28:00,30.8,28.5,29.59,WNW,285,1.0,6.0,91,0.00,,,0.00,WeatherDisplay:10.37,2013-03-04 06:28:00,
2013-03-04 01:33:00,31.1,28.5,29.59,WNW,297,0.0,2.0,90,0.00,,,0.00,WeatherDisplay:10.37,2013-03-04 06:33:00,
2013-03-04 01:38:00,31.3,28.4,29.58,NW,311,0.0,3.0,89,0.00,,,0.00,WeatherDisplay:10.37,2013-03-04 06:38:00,
2013-03-04 01:43:00,31.4,28.3,29.58,NW,317,0.0,2.0,88,0.00,,,0.00,WeatherDisplay:10.37,2013-03-04 06:43:00,
2013-03-04 01:48:00,31.4,28.3,29.58,NW,315,0.0,1.0,88,0.00,,,0.00,WeatherDisplay:10.37,2013-03-04 06:48:00,
2013-03-04 01:53:00,31.5,28.1,29.58,NW,314,0.0,1.0,87,0.00,,,0.00,WeatherDisplay:10.37,2013-03-04 06:53:00,
2013-03-04 01:58:00,31.6,27.9,29.58,NNW,331,0.0,4.0,86,0.00,,,0.00,WeatherDisplay:10.37,2013-03-04 06:58:00,
2013-03-04 02:03:00,31.6,29.0,29.58,NNW,344,0.0,2.0,90,0.00,,,0.00,WeatherDisplay:10.37,2013-03-04 07:03:00,
2013-03-04 02:08:00,31.7,28.0,29.58,NNW,344,0.0,2.0,86,0.00,,,0.00,WeatherDisplay:10.37,2013-03-04 07:08:00,
2013-03-04 02:13:00,31.7,28.0,29.59,NNW,344,0.0,0.0,86,0.00,,,0.00,WeatherDisplay:10.37,2013-03-04 07:13:00,
2013-03-04 02:18:00,31.6,27.9,29.59,NNW,343,0.0,1.0,86,0.00,,,0.00,WeatherDisplay:10.37,2013-03-04 07:18:00,
2013-03-04 02:23:00,31.5,28.1,29.59,NNW,339,0.0,0.0,87,0.00,,,0.00,WeatherDisplay:10.37,2013-03-04 07:23:00,
2013-03-04 02:28:00,31.4,28.0,29.59,NNW,338,0.0,1.0,87,0.00,,,0.00,WeatherDisplay:10.37,2013-03-04 07:28:00,
2013-03-04 02:33:00,31.2,27.8,29.59,NNW,338,0.0,2.0,87,0.00,,,0.00,WeatherDisplay:10.37,2013-03-04 07:33:00,
2013-03-04 02:38:00,31.2,27.8,29.59,NNW,335,0.0,1.0,87,0.00,,,0.00,WeatherDisplay:10.37,2013-03-04 07:38:00,
2013-03-04 02:43:00,31.1,28.0,29.58,NW,322,0.0,2.0,88,0.00,,,0.00,WeatherDisplay:10.37,2013-03-04 07:43:00,
2013-03-04 02:48:00,31.1,27.7,29.59,NW,312,1.0,2.0,87,0.00,,,0.00,WeatherDisplay:10.37,2013-03-04 07:48:00,
2013-03-04 02:53:00,31.1,27.7,29.59,NW,323,0.0,4.0,87,0.00,,,0.00,WeatherDisplay:10.37,2013-03-04 07:53:00,
2013-03-04 02:58:00,31.2,27.5,29.59,NW,326,2.0,5.0,86,0.00,,,0.00,WeatherDisplay:10.37,2013-03-04 07:58:00,
2013-03-04 03:03:00,31.3,27.6,29.59,NW,310,0.0,2.0,86,0.00,,,0.00,WeatherDisplay:10.37,2013-03-04 08:03:00,
2013-03-04 03:08:00,31.4,27.4,29.59,NW,309,0.0,6.0,85,0.00,,,0.00,WeatherDisplay:10.37,2013-03-04 08:08:00,
2013-03-04 03:13:00,31.5,27.2,29.59,NW,310,1.0,5.0,84,0.00,,,0.00,WeatherDisplay:10.37,2013-03-04 08:13:00,
2013-03-04 03:18:00,31.5,27.2,29.59,NW,324,1.0,4.0,84,0.00,,,0.00,WeatherDisplay:10.37,2013-03-04 08:18:00,
2013-03-04 03:23:00,31.6,27.0,29.59,NW,315,0.0,14.0,83,0.00,,,0.00,WeatherDisplay:10.37,2013-03-04 08:23:00,
2013-03-04 03:28:00,31.6,27.0,29.59,NW,304,1.0,5.0,83,0.00,,,0.00,WeatherDisplay:10.37,2013-03-04 08:28:00,
2013-03-04 03:33:00,31.6,26.7,29.59,NW,310,1.1,0.0,82,0.00,,,0.00,WeatherDisplay:10.37,2013-03-04 08:33:00,
2013-03-04 03:38:00,31.5,26.6,29.59,NW,311,3.5,3.5,82,0.00,,,0.00,WeatherDisplay:10.37,2013-03-04 08:38:00,
2013-03-04 03:43:00,31.5,26.6,29.59,NNW,330,11.5,11.5,82,0.00,,,0.00,WeatherDisplay:10.37,2013-03-04 08:43:00,
2013-03-04 03:48:00,31.4,26.2,29.60,North,10,2.3,2.3,81,0.00,,,0.00,WeatherDisplay:10.37,2013-03-04 08:48:00,
2013-03-04 03:53:00,31.2,26.0,29.60,NNW,346,6.9,6.9,81,0.00,,,0.00,WeatherDisplay:10.37,2013-03-04 08:53:00,
2013-03-04 03:58:00,31.1,26.0,29.60,NNW,338,0.0,0.0,81,0.00,,,0.00,WeatherDisplay:10.37,2013-03-04 08:58:00,
2013-03-04 04:03:00,30.9,25.8,29.60,North,350,4.6,4.6,81,0.00,,,0.00,WeatherDisplay:10.37,2013-03-04 09:03:00,
2013-03-04 04:08:00,30.8,25.4,29.60,North,355,4.6,4.6,80,0.00,,,0.00,WeatherDisplay:10.37,2013-03-04 09:08:00,
2013-03-04 04:13:00,30.6,25.2,29.60,WNW,288,3.5,3.5,80,0.00,,,0.00,WeatherDisplay:10.37,2013-03-04 09:13:00,
2013-03-04 04:18:00,30.5,25.1,29.60,West,263,2.3,2.3,80,0.00,,,0.00,WeatherDisplay:10.37,2013-03-04 09:18:00,
2013-03-04 04:23:00,30.4,25.0,29.61,NE,47,3.5,3.5,80,0.00,,,0.00,WeatherDisplay:10.37,2013-03-04 09:23:00,
2013-03-04 04:28:00,30.3,24.9,29.60,North,355,3.5,3.5,80,0.00,,,0.00,WeatherDisplay:10.37,2013-03-04 09:28:00,
2013-03-04 04:33:00,30.2,24.8,29.60,WNW,292,6.9,6.9,80,0.00,,,0.00,WeatherDisplay:10.37,2013-03-04 09:33:00,
2013-03-04 04:38:00,30.1,24.7,29.61,West,281,10.4,10.4,80,0.00,,,0.00,WeatherDisplay:10.37,2013-03-04 09:38:00,
2013-03-04 04:43:00,30.1,24.4,29.61,North,360,3.5,3.5,79,0.00,,,0.00,WeatherDisplay:10.37,2013-03-04 09:43:00,
2013-03-04 04:48:00,30.0,24.3,29.61,NW,304,3.5,3.5,79,0.00,,,0.00,WeatherDisplay:10.37,2013-03-04 09:48:00,
2013-03-04 04:53:00,29.8,24.4,29.61,WNW,290,6.9,6.9,80,0.00,,,0.00,WeatherDisplay:10.37,2013-03-04 09:53:00,
2013-03-04 04:58:00,29.7,24.0,29.61,NW,304,2.3,2.3,79,0.00,,,0.00,WeatherDisplay:10.37,2013-03-04 09:58:00,
2013-03-04 05:03:00,29.6,24.2,29.61,North,355,5.8,5.8,80,0.00,,,0.00,WeatherDisplay:10.37,2013-03-04 10:03:00,
2013-03-04 05:08:00,29.5,23.8,29.61,WNW,294,0.0,0.0,79,0.00,,,0.00,WeatherDisplay:10.37,2013-03-04 10:08:00,
2013-03-04 05:13:00,29.3,23.9,29.61,NNW,328,3.5,3.5,80,0.00,,,0.00,WeatherDisplay:10.37,2013-03-04 10:13:00,
2013-03-04 05:18:00,29.2,23.5,29.61,NNW,332,5.8,5.8,79,0.00,,,0.00,WeatherDisplay:10.37,2013-03-04 10:18:00,
2013-03-04 05:23:00,29.1,23.7,29.61,WNW,293,3.5,3.5,80,0.00,,,0.00,WeatherDisplay:10.37,2013-03-04 10:23:00,
2013-03-04 05:28:00,28.9,23.5,29.61,WNW,303,1.1,0.0,80,0.00,,,0.00,WeatherDisplay:10.37,2013-03-04 10:28:00,
2013-03-04 05:33:00,28.8,23.7,29.61,NW,313,0.0,0.0,81,0.00,,,0.00,WeatherDisplay:10.37,2013-03-04 10:33:00,
2013-03-04 05:38:00,28.7,23.6,29.61,NW,307,4.6,4.6,81,0.00,,,0.00,WeatherDisplay:10.37,2013-03-04 10:38:00,
2013-03-04 05:43:00,28.7,23.3,29.61,WNW,294,1.1,0.0,80,0.00,,,0.00,WeatherDisplay:10.37,2013-03-04 10:43:00,
2013-03-04 05:48:00,28.7,23.3,29.61,NW,313,0.0,0.0,80,0.00,,,0.00,WeatherDisplay:10.37,2013-03-04 10:48:00,
2013-03-04 05:53:00,28.7,23.3,29.61,NNW,327,4.0,4.0,80,0.00,,,0.00,WeatherDisplay:10.37,2013-03-04 10:53:00,
2013-03-04 05:58:00,28.8,23.4,29.61,WNW,294,3.5,3.5,80,0.00,,,0.00,WeatherDisplay:10.37,2013-03-04 10:58:00,
2013-03-04 06:03:00,28.8,23.4,29.61,WNW,292,3.5,3.5,80,0.00,,,0.00,WeatherDisplay:10.37,2013-03-04 11:03:00,
2013-03-04 06:08:00,28.7,23.3,29.61,West,277,9.2,9.2,80,0.00,,,0.00,WeatherDisplay:10.37,2013-03-04 11:08:00,
2013-03-04 06:13:00,28.7,23.0,29.61,WNW,302,5.8,5.8,79,0.00,,,0.00,WeatherDisplay:10.37,2013-03-04 11:13:00,
2013-03-04 06:18:00,28.8,23.1,29.61,NW,318,3.5,3.5,79,0.00,,,0.00,WeatherDisplay:10.37,2013-03-04 11:18:00,
2013-03-04 06:23:00,28.7,23.0,29.62,NNE,26,3.5,3.5,79,0.00,,,0.00,WeatherDisplay:10.37,2013-03-04 11:23:00,
2013-03-04 06:28:00,28.7,23.3,29.62,NW,306,4.6,4.6,80,0.00,,,0.00,WeatherDisplay:10.37,2013-03-04 11:28:00,
2013-03-04 06:33:00,28.7,23.3,29.62,WNW,299,9.2,9.2,80,0.00,,,0.00,WeatherDisplay:10.37,2013-03-04 11:33:00,
2013-03-04 06:38:00,28.7,23.0,29.62,NW,313,3.5,3.5,79,0.00,,,0.00,WeatherDisplay:10.37,2013-03-04 11:38:00,
2013-03-04 06:43:00,28.7,23.0,29.62,NW,310,9.2,9.2,79,0.00,,,0.00,WeatherDisplay:10.37,2013-03-04 11:43:00,
2013-03-04 06:48:00,28.8,23.1,29.62,NNW,329,3.5,3.5,79,0.00,,,0.00,WeatherDisplay:10.37,2013-03-04 11:48:00,
2013-03-04 06:53:00,28.8,23.1,29.62,NNW,343,0.0,0.0,79,0.00,,,0.00,WeatherDisplay:10.37,2013-03-04 11:53:00,
2013-03-04 06:58:00,28.8,23.1,29.62,NNE,23,3.5,3.5,79,0.00,,,0.00,WeatherDisplay:10.37,2013-03-04 11:58:00,
2013-03-04 07:03:00,28.8,23.1,29.62,WSW,253,3.5,3.5,79,0.00,,,0.00,WeatherDisplay:10.37,2013-03-04 12:03:00,
2013-03-04 07:08:00,28.8,23.1,29.63,NW,320,3.5,3.5,79,0.00,,,0.00,WeatherDisplay:10.37,2013-03-04 12:08:00,
2013-03-04 07:13:00,28.8,23.1,29.62,NNW,327,3.5,3.5,79,0.00,,,0.00,WeatherDisplay:10.37,2013-03-04 12:13:00,
2013-03-04 07:19:00,28.9,22.9,29.63,WNW,294,3.5,3.5,78,0.00,,,0.00,WeatherDisplay:10.37,2013-03-04 12:19:00,
2013-03-04 07:24:00,29.0,23.0,29.63,West,279,1.0,1.0,78,0.00,,,0.00,WeatherDisplay:10.37,2013-03-04 12:24:00,
2013-03-04 07:29:00,29.2,23.2,29.63,NW,318,5.8,5.8,78,0.00,,,0.00,WeatherDisplay:10.37,2013-03-04 12:29:00,
2013-03-04 07:33:00,29.8,23.2,29.63,NW,315,2.0,15.0,76,0.00,CLR,,0.00,WeatherDisplay:10.37,2013-03-04 12:33:00,
2013-03-04 07:34:00,29.5,23.2,29.63,WNW,303,10.4,10.4,77,0.00,,,0.00,WeatherDisplay:10.37,2013-03-04 12:34:00,
2013-03-04 07:38:00,29.8,23.2,29.63,NW,315,2.0,15.0,76,0.00,CLR,,0.00,WeatherDisplay:10.37,2013-03-04 12:38:00,
2013-03-04 07:39:00,29.7,23.4,29.63,NNW,339,5.8,5.8,77,0.00,,,0.00,WeatherDisplay:10.37,2013-03-04 12:39:00,
2013-03-04 07:43:00,29.8,23.2,29.63,NW,315,2.0,15.0,76,0.00,CLR,,0.00,WeatherDisplay:10.37,2013-03-04 12:43:00,
2013-03-04 07:44:00,30.0,23.4,29.63,West,281,4.6,4.6,76,0.00,,,0.00,WeatherDisplay:10.37,2013-03-04 12:44:00,
2013-03-04 07:48:00,29.8,23.2,29.63,NW,315,2.0,15.0,76,0.00,CLR,,0.00,WeatherDisplay:10.37,2013-03-04 12:48:00,
2013-03-04 07:49:00,30.3,23.3,29.63,NNW,330,8.1,8.1,75,0.00,,,0.00,WeatherDisplay:10.37,2013-03-04 12:49:00,
2013-03-04 07:53:00,29.8,23.2,29.63,NW,315,2.0,15.0,76,0.00,CLR,,0.00,WeatherDisplay:10.37,2013-03-04 12:53:00,
2013-03-04 07:54:00,30.5,23.5,29.63,NW,309,4.6,4.6,75,0.00,,,0.00,WeatherDisplay:10.37,2013-03-04 12:54:00,
2013-03-04 07:58:00,29.8,23.2,29.63,NW,315,2.0,15.0,76,0.00,CLR,,0.00,WeatherDisplay:10.37,2013-03-04 12:58:00,
2013-03-04 07:59:00,30.8,23.2,29.63,NW,314,10.4,10.4,73,0.00,,,0.00,WeatherDisplay:10.37,2013-03-04 12:59:00,
2013-03-04 08:04:00,30.9,23.3,29.63,NNE,13,18.4,18.4,73,0.00,,,0.00,WeatherDisplay:10.37,2013-03-04 13:04:00,
2013-03-04 08:09:00,31.0,23.4,29.62,North,355,4.0,4.0,73,0.00,,,0.00,WeatherDisplay:10.37,2013-03-04 13:09:00,
2013-03-04 08:14:00,31.3,23.6,29.62,NW,321,4.6,4.6,73,0.00,,,0.00,WeatherDisplay:10.37,2013-03-04 13:14:00,
2013-03-04 08:19:00,31.6,23.9,29.62,WSW,254,4.6,4.6,73,0.00,,,0.00,WeatherDisplay:10.37,2013-03-04 13:19:00,
2013-03-04 08:24:00,31.9,23.9,29.61,NW,319,7.0,0.0,72,0.00,,,0.00,WeatherDisplay:10.37,2013-03-04 13:24:00,
2013-03-04 08:29:00,32.3,24.3,29.61,South,189,5.8,5.8,72,0.00,,,0.00,WeatherDisplay:10.37,2013-03-04 13:29:00,
2013-03-04 08:33:00,32.9,24.2,29.62,NW,324,3.0,18.0,70,0.00,CLR,,0.00,WeatherDisplay:10.37,2013-03-04 13:33:00,
2013-03-04 08:34:00,32.6,24.2,29.62,WSW,250,7.0,7.0,71,0.00,,,0.00,WeatherDisplay:10.37,2013-03-04 13:34:00,
2013-03-04 08:38:00,32.9,24.2,29.62,NNW,334,3.0,16.0,70,0.00,CLR,,0.00,WeatherDisplay:10.37,2013-03-04 13:38:00,
2013-03-04 08:39:00,32.9,24.2,29.62,NW,323,5.8,5.8,70,0.00,,,0.00,WeatherDisplay:10.37,2013-03-04 13:39:00,
2013-03-04 08:43:00,32.9,24.2,29.62,NNW,338,3.0,16.0,70,0.00,CLR,,0.00,WeatherDisplay:10.37,2013-03-04 13:43:00,
2013-03-04 08:44:00,33.1,24.4,29.61,North,349,9.2,9.2,70,0.00,,,0.00,WeatherDisplay:10.37,2013-03-04 13:44:00,
2013-03-04 08:48:00,32.9,24.2,29.62,NNW,338,3.0,16.0,70,0.00,CLR,,0.00,WeatherDisplay:10.37,2013-03-04 13:48:00,
2013-03-04 08:49:00,33.4,24.3,29.62,North,11,10.4,10.4,69,0.00,,,0.00,WeatherDisplay:10.37,2013-03-04 13:49:00,
2013-03-04 08:53:00,32.9,24.2,29.62,NNW,338,3.0,16.0,70,0.00,CLR,,0.00,WeatherDisplay:10.37,2013-03-04 13:53:00,
2013-03-04 08:54:00,34.3,25.5,29.62,NNW,342,10.4,10.4,70,0.00,,,0.00,WeatherDisplay:10.37,2013-03-04 13:54:00,
2013-03-04 08:58:00,32.9,24.2,29.62,NNW,338,3.0,16.0,70,0.00,CLR,,0.00,WeatherDisplay:10.37,2013-03-04 13:58:00,
2013-03-04 08:59:00,34.7,25.6,29.62,North,360,6.9,6.9,69,0.00,,,0.00,WeatherDisplay:10.37,2013-03-04 13:59:00,
2013-03-04 09:04:00,34.9,25.4,29.61,North,5,9.2,9.2,68,0.00,,,0.00,WeatherDisplay:10.37,2013-03-04 14:04:00,
2013-03-04 09:09:00,35.2,25.7,29.61,North,9,10.0,10.0,68,0.00,,,0.00,WeatherDisplay:10.37,2013-03-04 14:09:00,
2013-03-04 09:14:00,35.6,25.7,29.61,NNW,334,9.0,9.0,67,0.00,,,0.00,WeatherDisplay:10.37,2013-03-04 14:14:00,
2013-03-04 09:19:00,36.1,26.2,29.61,NNW,344,11.5,11.5,67,0.00,,,0.00,WeatherDisplay:10.37,2013-03-04 14:19:00,
2013-03-04 09:24:00,36.1,26.2,29.61,NW,317,4.6,4.6,67,0.00,,,0.00,WeatherDisplay:10.37,2013-03-04 14:24:00,
2013-03-04 09:29:00,36.1,25.5,29.61,ENE,76,15.0,15.0,65,0.00,,,0.00,WeatherDisplay:10.37,2013-03-04 14:29:00,
2013-03-04 09:33:00,36.7,26.0,29.60,NNW,333,3.0,16.0,65,0.00,CLR,,0.00,WeatherDisplay:10.37,2013-03-04 14:33:00,
2013-03-04 09:34:00,36.3,26.4,29.60,West,265,9.2,9.2,67,0.00,,,0.00,WeatherDisplay:10.37,2013-03-04 14:34:00,
2013-03-04 09:38:00,36.7,26.0,29.60,NW,322,3.0,15.0,65,0.00,CLR,,0.00,WeatherDisplay:10.37,2013-03-04 14:38:00,
2013-03-04 09:39:00,36.6,25.6,29.60,North,5,3.5,3.5,64,0.00,,,0.00,WeatherDisplay:10.37,2013-03-04 14:39:00,
2013-03-04 09:43:00,36.7,26.0,29.60,NW,315,3.0,15.0,65,0.00,CLR,,0.00,WeatherDisplay:10.37,2013-03-04 14:43:00,
2013-03-04 09:44:00,37.1,26.8,29.60,NE,56,11.5,11.5,66,0.00,,,0.00,WeatherDisplay:10.37,2013-03-04 14:44:00,
2013-03-04 09:48:00,36.7,26.0,29.60,NW,315,3.0,15.0,65,0.00,CLR,,0.00,WeatherDisplay:10.37,2013-03-04 14:48:00,
2013-03-04 09:49:00,37.3,25.8,29.60,WNW,290,11.5,11.5,63,0.00,,,0.00,WeatherDisplay:10.37,2013-03-04 14:49:00,
2013-03-04 09:53:00,36.7,26.0,29.60,NW,315,3.0,15.0,65,0.00,CLR,,0.00,WeatherDisplay:10.37,2013-03-04 14:53:00,
2013-03-04 09:54:00,37.3,26.2,29.60,NNE,30,12.7,12.7,64,0.00,,,0.00,WeatherDisplay:10.37,2013-03-04 14:54:00,
2013-03-04 09:58:00,36.7,26.0,29.60,NW,315,3.0,15.0,65,0.00,CLR,,0.00,WeatherDisplay:10.37,2013-03-04 14:58:00,
2013-03-04 09:59:00,37.5,26.0,29.60,WSW,250,16.1,16.1,63,0.00,,,0.00,WeatherDisplay:10.37,2013-03-04 14:59:00,
2013-03-04 10:04:00,37.6,26.1,29.60,North,355,10.4,10.4,63,0.00,,,0.00,WeatherDisplay:10.37,2013-03-04 15:04:00,
2013-03-04 10:09:00,37.8,26.3,29.60,NNW,348,9.0,9.0,63,0.00,,,0.00,WeatherDisplay:10.37,2013-03-04 15:09:00,
2013-03-04 10:14:00,37.6,25.0,29.60,WNW,293,11.5,11.5,60,0.00,,,0.00,WeatherDisplay:10.37,2013-03-04 15:14:00,
2013-03-04 10:19:00,38.0,27.3,29.60,WSW,258,5.0,5.0,65,0.00,,,0.00,WeatherDisplay:10.37,2013-03-04 15:19:00,
2013-03-04 10:24:00,38.9,26.6,29.60,North,360,12.0,12.0,61,0.00,,,0.00,WeatherDisplay:10.37,2013-03-04 15:24:00,
2013-03-04 10:29:00,39.1,26.4,29.59,NNW,348,12.7,12.7,60,0.00,,,0.00,WeatherDisplay:10.37,2013-03-04 15:29:00,
2013-03-04 10:33:00,39.3,26.2,29.59,NNW,331,3.0,17.0,59,0.00,CLR,,0.00,WeatherDisplay:10.37,2013-03-04 15:33:00,
2013-03-04 10:34:00,39.3,26.2,29.59,NW,319,16.1,16.1,59,0.00,,,0.00,WeatherDisplay:10.37,2013-03-04 15:34:00,
2013-03-04 10:38:00,39.3,26.2,29.59,North,354,3.0,16.0,59,0.00,CLR,,0.00,WeatherDisplay:10.37,2013-03-04 15:38:00,
2013-03-04 10:39:00,39.3,26.2,29.59,North,350,10.4,10.4,59,0.00,,,0.00,WeatherDisplay:10.37,2013-03-04 15:39:00,
2013-03-04 10:43:00,39.3,26.2,29.59,North,0,3.0,16.0,59,0.00,CLR,,0.00,WeatherDisplay:10.37,2013-03-04 15:43:00,
2013-03-04 10:44:00,39.8,27.8,29.59,WNW,300,2.3,2.3,62,0.00,,,0.00,WeatherDisplay:10.37,2013-03-04 15:44:00,
2013-03-04 10:48:00,39.3,26.2,29.59,North,0,3.0,16.0,59,0.00,CLR,,0.00,WeatherDisplay:10.37,2013-03-04 15:48:00,
2013-03-04 10:49:00,39.9,26.7,29.59,West,265,10.4,10.4,59,0.00,,,0.00,WeatherDisplay:10.37,2013-03-04 15:49:00,
2013-03-04 10:53:00,39.3,26.2,29.59,North,0,3.0,16.0,59,0.00,CLR,,0.00,WeatherDisplay:10.37,2013-03-04 15:53:00,
2013-03-04 10:54:00,39.8,26.6,29.59,North,360,6.9,6.9,59,0.00,,,0.00,WeatherDisplay:10.37,2013-03-04 15:54:00,
2013-03-04 10:58:00,39.3,26.2,29.59,North,0,3.0,16.0,59,0.00,CLR,,0.00,WeatherDisplay:10.37,2013-03-04 15:58:00,
2013-03-04 10:59:00,40.5,27.7,29.59,North,5,11.5,11.5,60,0.00,,,0.00,WeatherDisplay:10.37,2013-03-04 15:59:00,
2013-03-04 11:04:00,40.7,27.1,29.58,NNE,15,11.5,11.5,58,0.00,,,0.00,WeatherDisplay:10.37,2013-03-04 16:04:00,
2013-03-04 11:09:00,40.3,27.5,29.58,NNE,22,5.8,5.8,60,0.00,,,0.00,WeatherDisplay:10.37,2013-03-04 16:09:00,
2013-03-04 11:14:00,40.5,26.9,29.58,NW,308,11.5,11.5,58,0.00,,,0.00,WeatherDisplay:10.37,2013-03-04 16:14:00,
2013-03-04 11:19:00,40.8,27.2,29.58,NNW,332,5.8,5.8,58,0.00,,,0.00,WeatherDisplay:10.37,2013-03-04 16:19:00,
2013-03-04 11:24:00,41.4,26.9,29.59,NW,326,12.0,12.0,56,0.00,,,0.00,WeatherDisplay:10.37,2013-03-04 16:24:00,
2013-03-04 11:29:00,41.6,27.1,29.59,NNE,14,13.0,13.0,56,0.00,,,0.00,WeatherDisplay:10.37,2013-03-04 16:29:00,
2013-03-04 11:33:00,41.0,26.9,29.58,North,355,3.0,16.0,57,0.00,CLR,,0.00,WeatherDisplay:10.37,2013-03-04 16:33:00,
2013-03-04 11:34:00,41.0,26.5,29.58,North,9,11.5,11.5,56,0.00,,,0.00,WeatherDisplay:10.37,2013-03-04 16:34:00,
2013-03-04 11:38:00,41.0,26.9,29.58,North,355,3.0,14.0,57,0.00,CLR,,0.00,WeatherDisplay:10.37,2013-03-04 16:38:00,
2013-03-04 11:39:00,40.9,26.8,29.58,NNE,15,6.9,6.9,57,0.00,,,0.00,WeatherDisplay:10.37,2013-03-04 16:39:00,
2013-03-04 11:43:00,41.0,26.9,29.58,North,0,3.0,14.0,57,0.00,CLR,,0.00,WeatherDisplay:10.37,2013-03-04 16:43:00,
2013-03-04 11:44:00,40.9,27.2,29.59,NNW,327,12.7,12.7,58,0.00,,,0.00,WeatherDisplay:10.37,2013-03-04 16:44:00,
2013-03-04 11:48:00,41.0,26.9,29.58,North,0,3.0,14.0,57,0.00,CLR,,0.00,WeatherDisplay:10.37,2013-03-04 16:48:00,
2013-03-04 11:49:00,40.5,26.0,29.59,North,360,9.2,9.2,56,0.00,,,0.00,WeatherDisplay:10.37,2013-03-04 16:49:00,
2013-03-04 11:53:00,41.0,26.9,29.58,North,0,3.0,14.0,57,0.00,CLR,,0.00,WeatherDisplay:10.37,2013-03-04 16:53:00,
2013-03-04 11:54:00,40.6,27.0,29.58,NW,315,6.9,6.9,58,0.00,,,0.00,WeatherDisplay:10.37,2013-03-04 16:54:00,
2013-03-04 11:58:00,41.0,26.9,29.58,North,0,3.0,14.0,57,0.00,CLR,,0.00,WeatherDisplay:10.37,2013-03-04 16:58:00,
2013-03-04 11:59:00,41.5,26.5,29.58,North,355,11.5,11.5,55,0.00,,,0.00,WeatherDisplay:10.37,2013-03-04 16:59:00,
2013-03-04 12:04:00,42.0,27.9,29.58,ENE,63,5.8,5.8,57,0.00,,,0.00,WeatherDisplay:10.37,2013-03-04 17:04:00,
2013-03-04 12:09:00,42.4,26.9,29.58,NE,38,12.7,12.7,54,0.00,,,0.00,WeatherDisplay:10.37,2013-03-04 17:09:00,
2013-03-04 12:14:00,41.9,26.4,29.58,North,350,9.2,9.2,54,0.00,OVC,,0.00,WeatherDisplay:10.37,2013-03-04 17:14:00,
2013-03-04 12:19:00,41.5,27.0,29.58,NNW,346,3.5,3.5,56,0.00,OVC,,0.00,WeatherDisplay:10.37,2013-03-04 17:19:00,
2013-03-04 12:24:00,42.0,27.0,29.58,WNW,302,11.5,11.5,55,0.00,OVC,,0.00,WeatherDisplay:10.37,2013-03-04 17:24:00,
2013-03-04 12:29:00,42.3,27.3,29.58,West,269,13.8,13.8,55,0.00,OVC,,0.00,WeatherDisplay:10.37,2013-03-04 17:29:00,
2013-03-04 12:33:00,42.9,27.4,29.57,North,349,3.0,20.0,54,0.00,CLR,,0.00,WeatherDisplay:10.37,2013-03-04 17:33:00,
2013-03-04 12:34:00,42.8,27.3,29.57,NW,318,11.5,11.5,54,0.00,OVC,,0.00,WeatherDisplay:10.37,2013-03-04 17:34:00,
2013-03-04 12:38:00,42.9,27.4,29.57,NNW,338,3.0,14.0,54,0.00,CLR,,0.00,WeatherDisplay:10.37,2013-03-04 17:38:00,
2013-03-04 12:39:00,42.9,27.4,29.57,West,281,7.0,7.0,54,0.00,OVC,,0.00,WeatherDisplay:10.37,2013-03-04 17:39:00,
2013-03-04 12:43:00,42.9,27.4,29.57,NNW,338,3.0,14.0,54,0.00,CLR,,0.00,WeatherDisplay:10.37,2013-03-04 17:43:00,
2013-03-04 12:44:00,43.1,27.1,29.57,WNW,300,11.5,11.5,53,0.00,OVC,,0.00,WeatherDisplay:10.37,2013-03-04 17:44:00,
2013-03-04 12:48:00,42.9,27.4,29.57,NNW,338,3.0,14.0,54,0.00,CLR,,0.00,WeatherDisplay:10.37,2013-03-04 17:48:00,
2013-03-04 12:49:00,42.8,26.8,29.57,North,355,10.4,10.4,53,0.00,OVC,,0.00,WeatherDisplay:10.37,2013-03-04 17:49:00,
2013-03-04 12:53:00,42.9,27.4,29.57,NNW,338,3.0,14.0,54,0.00,CLR,,0.00,WeatherDisplay:10.37,2013-03-04 17:53:00,
2013-03-04 12:54:00,41.6,26.6,29.57,NW,322,6.0,6.0,55,0.00,OVC,,0.00,WeatherDisplay:10.37,2013-03-04 17:54:00,
2013-03-04 12:58:00,42.9,27.4,29.57,NNW,338,3.0,14.0,54,0.00,CLR,,0.00,WeatherDisplay:10.37,2013-03-04 17:58:00,
2013-03-04 12:59:00,41.3,26.8,29.57,North,10,5.8,5.8,56,0.00,OVC,,0.00,WeatherDisplay:10.37,2013-03-04 17:59:00,
2013-03-04 13:04:00,41.3,26.3,29.56,West,271,17.0,17.0,55,0.00,OVC,,0.00,WeatherDisplay:10.37,2013-03-04 18:04:00,
2013-03-04 13:09:00,41.0,26.1,29.57,NW,319,11.5,11.5,55,0.00,OVC,,0.00,WeatherDisplay:10.37,2013-03-04 18:09:00,
2013-03-04 13:14:00,40.6,25.7,29.56,North,355,11.5,11.5,55,0.00,,,0.00,WeatherDisplay:10.37,2013-03-04 18:14:00,
2013-03-04 13:19:00,40.4,25.9,29.56,NNW,338,11.5,11.5,56,0.00,,,0.00,WeatherDisplay:10.37,2013-03-04 18:19:00,
2013-03-04 13:24:00,40.0,26.0,29.56,NNW,342,9.2,9.2,57,0.00,,,0.00,WeatherDisplay:10.37,2013-03-04 18:24:00,
2013-03-04 13:29:00,39.7,25.7,29.56,NNW,348,17.3,17.3,57,0.00,,,0.00,WeatherDisplay:10.37,2013-03-04 18:29:00,
2013-03-04 13:33:00,40.4,25.5,29.56,NNW,340,5.0,18.0,55,0.00,CLR,,0.00,WeatherDisplay:10.37,2013-03-04 18:33:00,
2013-03-04 13:38:00,40.4,25.5,29.56,NNW,340,5.0,18.0,55,0.00,CLR,,0.00,WeatherDisplay:10.37,2013-03-04 18:38:00,
2013-03-04 13:43:00,40.4,25.5,29.56,NNW,338,5.0,18.0,55,0.00,CLR,,0.00,WeatherDisplay:10.37,2013-03-04 18:43:00,
2013-03-04 13:48:00,40.4,25.5,29.56,NNW,338,5.0,18.0,55,0.00,CLR,,0.00,WeatherDisplay:10.37,2013-03-04 18:48:00,
2013-03-04 13:52:00,40.7,26.6,29.57,ENE,61,11.5,11.5,57,0.00,,,0.00,WeatherDisplay:10.37,2013-03-04 18:52:00,
2013-03-04 13:53:00,40.4,25.5,29.56,NNW,338,5.0,18.0,55,0.00,CLR,,0.00,WeatherDisplay:10.37,2013-03-04 18:53:00,
2013-03-04 13:57:00,40.6,26.1,29.56,NNE,25,9.2,9.2,56,0.00,,,0.00,WeatherDisplay:10.37,2013-03-04 18:57:00,
2013-03-04 13:58:00,40.4,25.5,29.56,NNW,338,5.0,18.0,55,0.00,CLR,,0.00,WeatherDisplay:10.37,2013-03-04 18:58:00,
2013-03-04 14:02:00,40.7,26.6,29.56,North,9,12.7,12.7,57,0.00,,,0.00,WeatherDisplay:10.37,2013-03-04 19:02:00,
2013-03-04 14:07:00,40.8,26.3,29.56,WSW,256,9.2,9.2,56,0.00,,,0.00,WeatherDisplay:10.37,2013-03-04 19:07:00,
2013-03-04 14:12:00,41.0,26.9,29.57,NW,304,5.8,5.8,57,0.00,,,0.00,WeatherDisplay:10.37,2013-03-04 19:12:00,
2013-03-04 14:17:00,40.8,26.3,29.56,NE,55,3.5,3.5,56,0.00,,,0.00,WeatherDisplay:10.37,2013-03-04 19:17:00,
2013-03-04 14:22:00,40.6,26.1,29.57,North,5,5.8,5.8,56,0.00,,,0.00,WeatherDisplay:10.37,2013-03-04 19:22:00,
2013-03-04 14:27:00,40.7,26.6,29.57,NW,315,5.8,5.8,57,0.00,,,0.00,WeatherDisplay:10.37,2013-03-04 19:27:00,
2013-03-04 14:32:00,40.7,26.2,29.57,WNW,284,4.0,4.0,56,0.00,,,0.00,WeatherDisplay:10.37,2013-03-04 19:32:00,
2013-03-04 14:33:00,40.4,26.4,29.56,NNW,338,3.0,18.0,57,0.00,CLR,,0.00,WeatherDisplay:10.37,2013-03-04 19:33:00,
2013-03-04 14:37:00,40.4,26.4,29.56,NNW,344,4.6,4.6,57,0.00,,,0.00,WeatherDisplay:10.37,2013-03-04 19:37:00,
2013-03-04 14:38:00,40.4,26.4,29.56,NNW,338,3.0,13.0,57,0.00,CLR,,0.00,WeatherDisplay:10.37,2013-03-04 19:38:00,
2013-03-04 14:42:00,40.4,25.9,29.57,NNE,30,4.6,4.6,56,0.00,,,0.00,WeatherDisplay:10.37,2013-03-04 19:42:00,
2013-03-04 14:43:00,40.4,26.4,29.56,NNW,338,3.0,13.0,57,0.00,CLR,,0.00,WeatherDisplay:10.37,2013-03-04 19:43:00,
2013-03-04 14:47:00,40.4,26.8,29.57,NNE,29,12.7,12.7,58,0.00,,,0.00,WeatherDisplay:10.37,2013-03-04 19:47:00,
2013-03-04 14:48:00,40.4,26.4,29.56,NNW,338,3.0,13.0,57,0.00,CLR,,0.00,WeatherDisplay:10.37,2013-03-04 19:48:00,
2013-03-04 14:52:00,40.2,26.6,29.57,NW,325,11.5,11.5,58,0.00,,,0.00,WeatherDisplay:10.37,2013-03-04 19:52:00,
2013-03-04 14:53:00,40.4,26.4,29.56,NNW,338,3.0,13.0,57,0.00,CLR,,0.00,WeatherDisplay:10.37,2013-03-04 19:53:00,
2013-03-04 14:57:00,40.1,26.1,29.57,WNW,287,4.6,4.6,57,0.00,,,0.00,WeatherDisplay:10.37,2013-03-04 19:57:00,
2013-03-04 14:58:00,40.4,26.4,29.56,NNW,338,3.0,13.0,57,0.00,CLR,,0.00,WeatherDisplay:10.37,2013-03-04 19:58:00,
2013-03-04 15:02:00,40.2,26.6,29.57,NNE,14,15.0,15.0,58,0.00,,,0.00,WeatherDisplay:10.37,2013-03-04 20:02:00,
2013-03-04 15:07:00,40.2,26.2,29.57,NW,321,15.0,15.0,57,0.00,,,0.00,WeatherDisplay:10.37,2013-03-04 20:07:00,
2013-03-04 15:12:00,40.7,26.6,29.57,NNE,22,9.2,9.2,57,0.00,,,0.00,WeatherDisplay:10.37,2013-03-04 20:12:00,
2013-03-04 15:17:00,41.0,26.9,29.57,WNW,286,13.8,13.8,57,0.00,,,0.00,WeatherDisplay:10.37,2013-03-04 20:17:00,
2013-03-04 15:22:00,40.5,26.4,29.57,WNW,297,13.8,13.8,57,0.00,,,0.00,WeatherDisplay:10.37,2013-03-04 20:22:00,
2013-03-04 15:27:00,40.2,27.0,29.57,North,350,4.0,4.0,59,0.00,,,0.00,WeatherDisplay:10.37,2013-03-04 20:27:00,
2013-03-04 15:32:00,40.3,26.7,29.57,NW,317,4.6,4.6,58,0.00,,,0.00,WeatherDisplay:10.37,2013-03-04 20:32:00,
2013-03-04 15:33:00,40.6,27.0,29.57,NNW,331,3.0,18.0,58,0.00,CLR,,0.00,WeatherDisplay:10.37,2013-03-04 20:33:00,
2013-03-04 15:37:00,40.5,26.9,29.57,WSW,238,5.8,5.8,58,0.00,,,0.00,WeatherDisplay:10.37,2013-03-04 20:37:00,
2013-03-04 15:38:00,40.6,27.0,29.57,NW,320,3.0,16.0,58,0.00,CLR,,0.00,WeatherDisplay:10.37,2013-03-04 20:38:00,
2013-03-04 15:42:00,40.7,27.1,29.57,NNW,329,10.4,10.4,58,0.00,,,0.00,WeatherDisplay:10.37,2013-03-04 20:42:00,
2013-03-04 15:43:00,40.6,27.0,29.57,NW,315,3.0,16.0,58,0.00,CLR,,0.00,WeatherDisplay:10.37,2013-03-04 20:43:00,
2013-03-04 15:47:00,40.5,26.4,29.57,NNW,344,11.5,11.5,57,0.00,,,0.00,WeatherDisplay:10.37,2013-03-04 20:47:00,
2013-03-04 15:48:00,40.6,27.0,29.57,NW,315,3.0,16.0,58,0.00,CLR,,0.00,WeatherDisplay:10.37,2013-03-04 20:48:00,
2013-03-04 15:52:00,40.4,26.4,29.57,NNW,327,5.8,5.8,57,0.00,,,0.00,WeatherDisplay:10.37,2013-03-04 20:52:00,
2013-03-04 15:53:00,40.6,27.0,29.57,NW,315,3.0,16.0,58,0.00,CLR,,0.00,WeatherDisplay:10.37,2013-03-04 20:53:00,
2013-03-04 15:57:00,40.4,26.8,29.57,NW,304,4.6,4.6,58,0.00,,,0.00,WeatherDisplay:10.37,2013-03-04 20:57:00,
2013-03-04 15:58:00,40.6,27.0,29.57,NW,315,3.0,16.0,58,0.00,CLR,,0.00,WeatherDisplay:10.37,2013-03-04 20:58:00,
2013-03-04 16:02:00,40.4,26.8,29.57,NNE,15,3.5,3.5,58,0.00,,,0.00,WeatherDisplay:10.37,2013-03-04 21:02:00,
2013-03-04 16:07:00,40.4,26.8,29.57,West,275,15.0,15.0,58,0.00,,,0.00,WeatherDisplay:10.37,2013-03-04 21:07:00,
2013-03-04 16:12:00,40.1,26.9,29.57,NW,304,9.2,9.2,59,0.00,,,0.00,WeatherDisplay:10.37,2013-03-04 21:12:00,
2013-03-04 16:17:00,40.0,26.8,29.57,North,355,6.9,6.9,59,0.00,,,0.00,WeatherDisplay:10.37,2013-03-04 21:17:00,
2013-03-04 16:22:00,40.1,26.5,29.58,NNW,327,9.2,9.2,58,0.00,,,0.00,WeatherDisplay:10.37,2013-03-04 21:22:00,
2013-03-04 16:27:00,40.1,26.9,29.57,NNW,333,10.4,10.4,59,0.00,,,0.00,WeatherDisplay:10.37,2013-03-04 21:27:00,
2013-03-04 16:32:00,40.1,26.9,29.57,NNW,330,15.0,15.0,59,0.00,,,0.00,WeatherDisplay:10.37,2013-03-04 21:32:00,
2013-03-04 16:33:00,39.8,26.6,29.58,NW,324,3.0,18.0,59,0.00,CLR,,0.00,WeatherDisplay:10.37,2013-03-04 21:33:00,
2013-03-04 16:37:00,39.9,26.7,29.58,WNW,292,5.8,5.8,59,0.00,,,0.00,WeatherDisplay:10.37,2013-03-04 21:37:00,
2013-03-04 16:38:00,39.8,26.6,29.58,NNW,336,3.0,18.0,59,0.00,CLR,,0.00,WeatherDisplay:10.37,2013-03-04 21:38:00,
2013-03-04 16:42:00,39.8,27.0,29.58,West,275,4.6,4.6,60,0.00,,,0.00,WeatherDisplay:10.37,2013-03-04 21:42:00,
2013-03-04 16:43:00,39.8,26.6,29.58,NNW,338,3.0,18.0,59,0.00,CLR,,0.00,WeatherDisplay:10.37,2013-03-04 21:43:00,
2013-03-04 16:47:00,39.6,26.8,29.58,North,360,4.6,4.6,60,0.00,,,0.00,WeatherDisplay:10.37,2013-03-04 21:47:00,
2013-03-04 16:48:00,39.8,26.6,29.58,NNW,338,3.0,18.0,59,0.00,CLR,,0.00,WeatherDisplay:10.37,2013-03-04 21:48:00,
2013-03-04 16:52:00,39.4,27.1,29.58,NW,306,10.4,10.4,61,0.00,,,0.00,WeatherDisplay:10.37,2013-03-04 21:52:00,
2013-03-04 16:53:00,39.8,26.6,29.58,NNW,338,3.0,18.0,59,0.00,CLR,,0.00,WeatherDisplay:10.37,2013-03-04 21:53:00,
2013-03-04 16:57:00,39.2,26.9,29.59,NW,324,6.9,6.9,61,0.00,,,0.00,WeatherDisplay:10.37,2013-03-04 21:57:00,
2013-03-04 16:58:00,39.8,26.6,29.58,NNW,338,3.0,18.0,59,0.00,CLR,,0.00,WeatherDisplay:10.37,2013-03-04 21:58:00,
2013-03-04 17:02:00,39.0,27.1,29.59,South,184,9.2,9.2,62,0.00,,,0.00,WeatherDisplay:10.37,2013-03-04 22:02:00,
2013-03-04 17:07:00,38.8,27.3,29.59,South,188,4.6,4.6,63,0.00,,,0.00,WeatherDisplay:10.37,2013-03-04 22:07:00,
2013-03-04 17:12:00,38.6,27.1,29.60,WSW,242,5.8,5.8,63,0.00,,,0.00,WeatherDisplay:10.37,2013-03-04 22:12:00,
2013-03-04 17:17:00,38.5,27.0,29.60,WNW,285,11.5,11.5,63,0.00,,,0.00,WeatherDisplay:10.37,2013-03-04 22:17:00,
2013-03-04 17:22:00,38.4,26.9,29.60,WSW,257,11.5,11.5,63,0.00,,,0.00,WeatherDisplay:10.37,2013-03-04 22:22:00,
2013-03-04 17:27:00,38.3,27.2,29.60,NW,316,10.4,10.4,64,0.00,,,0.00,WeatherDisplay:10.37,2013-03-04 22:27:00,
2013-03-04 17:32:00,38.2,27.1,29.61,North,349,4.6,4.6,64,0.00,,,0.00,WeatherDisplay:10.37,2013-03-04 22:32:00,
2013-03-04 17:33:00,38.1,27.0,29.61,NNW,336,3.0,20.0,64,0.00,CLR,,0.00,WeatherDisplay:10.37,2013-03-04 22:33:00,
2013-03-04 17:37:00,38.1,27.0,29.61,NNW,339,4.6,4.6,64,0.00,,,0.00,WeatherDisplay:10.37,2013-03-04 22:37:00,
2013-03-04 17:38:00,38.1,27.0,29.61,NNW,336,3.0,13.0,64,0.00,CLR,,0.00,WeatherDisplay:10.37,2013-03-04 22:38:00,
2013-03-04 17:42:00,38.0,26.9,29.61,North,5,3.5,3.5,64,0.00,,,0.00,WeatherDisplay:10.37,2013-03-04 22:42:00,
2013-03-04 17:43:00,38.1,27.0,29.61,NNW,338,3.0,13.0,64,0.00,CLR,,0.00,WeatherDisplay:10.37,2013-03-04 22:43:00,
2013-03-04 17:47:00,38.0,26.9,29.61,WNW,300,3.5,3.5,64,0.00,,,0.00,WeatherDisplay:10.37,2013-03-04 22:47:00,
2013-03-04 17:48:00,38.1,27.0,29.61,NNW,338,3.0,13.0,64,0.00,CLR,,0.00,WeatherDisplay:10.37,2013-03-04 22:48:00,
2013-03-04 17:52:00,37.9,26.8,29.61,NW,313,5.8,5.8,64,0.00,,,0.00,WeatherDisplay:10.37,2013-03-04 22:52:00,
2013-03-04 17:53:00,38.1,27.0,29.61,NNW,338,3.0,13.0,64,0.00,CLR,,0.00,WeatherDisplay:10.37,2013-03-04 22:53:00,
2013-03-04 17:57:00,37.8,26.7,29.61,North,355,5.0,5.0,64,0.00,,,0.00,WeatherDisplay:10.37,2013-03-04 22:57:00,
2013-03-04 17:58:00,38.1,27.0,29.61,NNW,338,3.0,13.0,64,0.00,CLR,,0.00,WeatherDisplay:10.37,2013-03-04 22:58:00,
2013-03-04 18:02:00,37.8,26.7,29.62,NNW,342,3.5,3.5,64,0.00,,,0.00,WeatherDisplay:10.37,2013-03-04 23:02:00,
2013-03-04 18:07:00,37.7,26.6,29.62,West,277,4.6,4.6,64,0.00,,,0.00,WeatherDisplay:10.37,2013-03-04 23:07:00,
2013-03-04 18:12:00,37.7,26.6,29.62,NNW,329,4.6,4.6,64,0.00,OVC,,0.00,WeatherDisplay:10.37,2013-03-04 23:12:00,
2013-03-04 18:17:00,37.6,26.1,29.62,WNW,302,5.8,5.8,63,0.00,OVC,,0.00,WeatherDisplay:10.37,2013-03-04 23:17:00,
2013-03-04 18:22:00,37.6,26.5,29.63,ENE,64,3.5,3.5,64,0.00,OVC,,0.00,WeatherDisplay:10.37,2013-03-04 23:22:00,
2013-03-04 18:27:00,37.5,26.4,29.63,NNW,342,5.8,5.8,64,0.00,OVC,,0.00,WeatherDisplay:10.37,2013-03-04 23:27:00,
2013-03-04 18:32:00,37.5,26.4,29.63,NW,319,5.8,5.8,64,0.00,OVC,,0.00,WeatherDisplay:10.37,2013-03-04 23:32:00,
2013-03-04 18:33:00,37.5,26.8,29.63,NNW,333,2.0,13.0,65,0.00,CLR,,0.00,WeatherDisplay:10.37,2013-03-04 23:33:00,
2013-03-04 18:37:00,37.5,26.8,29.63,North,11,4.6,4.6,65,0.00,OVC,,0.00,WeatherDisplay:10.37,2013-03-04 23:37:00,
2013-03-04 18:38:00,37.5,26.8,29.63,NW,320,2.0,11.0,65,0.00,CLR,,0.00,WeatherDisplay:10.37,2013-03-04 23:38:00,
2013-03-04 18:42:00,37.5,26.8,29.63,NNE,17,3.5,3.5,65,0.00,OVC,,0.00,WeatherDisplay:10.37,2013-03-04 23:42:00,
2013-03-04 18:43:00,37.5,26.8,29.63,NW,315,2.0,11.0,65,0.00,CLR,,0.00,WeatherDisplay:10.37,2013-03-04 23:43:00,
2013-03-04 18:47:00,37.4,27.1,29.63,NNW,336,3.5,3.5,66,0.00,OVC,,0.00,WeatherDisplay:10.37,2013-03-04 23:47:00,
2013-03-04 18:48:00,37.5,26.8,29.63,NW,315,2.0,11.0,65,0.00,CLR,,0.00,WeatherDisplay:10.37,2013-03-04 23:48:00,
2013-03-04 18:52:00,37.4,27.1,29.64,NNW,338,12.0,12.0,66,0.00,OVC,,0.00,WeatherDisplay:10.37,2013-03-04 23:52:00,
2013-03-04 18:53:00,37.5,26.8,29.63,NW,315,2.0,11.0,65,0.00,CLR,,0.00,WeatherDisplay:10.37,2013-03-04 23:53:00,
2013-03-04 18:57:00,37.4,27.1,29.64,NW,322,4.6,4.6,66,0.00,OVC,,0.00,WeatherDisplay:10.37,2013-03-04 23:57:00,
2013-03-04 18:58:00,37.5,26.8,29.63,NW,315,2.0,11.0,65,0.00,CLR,,0.00,WeatherDisplay:10.37,2013-03-04 23:58:00,
2013-03-04 19:02:00,37.3,27.0,29.64,NW,315,10.4,10.4,66,0.00,OVC,,0.00,WeatherDisplay:10.37,2013-03-05 00:02:00,
2013-03-04 19:07:00,37.1,26.8,29.64,NNW,333,5.8,5.8,66,0.00,OVC,,0.00,WeatherDisplay:10.37,2013-03-05 00:07:00,
2013-03-04 19:12:00,37.0,26.7,29.65,NNW,335,13.8,13.8,66,0.00,OVC,,0.00,WeatherDisplay:10.37,2013-03-05 00:12:00,
2013-03-04 19:17:00,36.8,26.9,29.65,NNE,25,16.1,16.1,67,0.00,OVC,,0.00,WeatherDisplay:10.37,2013-03-05 00:17:00,
2013-03-04 19:22:00,36.6,26.7,29.65,NNW,348,5.8,5.8,67,0.00,OVC,,0.00,WeatherDisplay:10.37,2013-03-05 00:22:00,
2013-03-04 19:27:00,36.5,26.9,29.65,NNW,344,12.7,12.7,68,0.00,OVC,,0.00,WeatherDisplay:10.37,2013-03-05 00:27:00,
2013-03-04 19:32:00,36.3,27.1,29.65,NNW,336,17.3,17.3,69,0.00,OVC,,0.00,WeatherDisplay:10.37,2013-03-05 00:32:00,
2013-03-04 19:33:00,36.0,26.8,29.66,NW,326,3.0,17.0,69,0.00,CLR,,0.00,WeatherDisplay:10.37,2013-03-05 00:33:00,
2013-03-04 19:37:00,36.1,26.9,29.65,NW,306,6.9,6.9,69,0.00,OVC,,0.00,WeatherDisplay:10.37,2013-03-05 00:37:00,
2013-03-04 19:38:00,36.0,26.8,29.66,NNW,336,3.0,17.0,69,0.00,CLR,,0.00,WeatherDisplay:10.37,2013-03-05 00:38:00,
2013-03-04 19:42:00,36.0,26.8,29.66,NW,318,3.5,3.5,69,0.00,OVC,,0.00,WeatherDisplay:10.37,2013-03-05 00:42:00,
2013-03-04 19:43:00,36.0,26.8,29.66,NNW,338,3.0,17.0,69,0.00,CLR,,0.00,WeatherDisplay:10.37,2013-03-05 00:43:00,
2013-03-04 19:47:00,35.8,26.6,29.66,NNW,347,11.5,11.5,69,0.00,OVC,,0.00,WeatherDisplay:10.37,2013-03-05 00:47:00,
2013-03-04 19:48:00,36.0,26.8,29.66,NNW,338,3.0,17.0,69,0.00,CLR,,0.00,WeatherDisplay:10.37,2013-03-05 00:48:00,
2013-03-04 19:52:00,35.7,26.5,29.66,North,355,4.6,4.6,69,0.00,OVC,,0.00,WeatherDisplay:10.37,2013-03-05 00:52:00,
2013-03-04 19:53:00,36.0,26.8,29.66,NNW,338,3.0,17.0,69,0.00,CLR,,0.00,WeatherDisplay:10.37,2013-03-05 00:53:00,
2013-03-04 19:58:00,35.7,26.5,29.66,NW,325,13.8,13.8,69,0.00,OVC,,0.00,WeatherDisplay:10.37,2013-03-05 00:58:00,
2013-03-04 20:03:00,35.6,26.4,29.66,NNW,339,1.1,0.0,69,0.00,OVC,,0.00,WeatherDisplay:10.37,2013-03-05 01:03:00,
2013-03-04 20:08:00,35.5,26.3,29.66,NNW,342,13.8,13.8,69,0.00,OVC,,0.00,WeatherDisplay:10.37,2013-03-05 01:08:00,
2013-03-04 20:13:00,35.4,26.2,29.66,North,355,12.0,12.0,69,0.00,OVC,,0.00,WeatherDisplay:10.37,2013-03-05 01:13:00,
2013-03-04 20:18:00,35.4,26.2,29.67,NE,44,9.2,9.2,69,0.00,OVC,,0.00,WeatherDisplay:10.37,2013-03-05 01:18:00,
2013-03-04 20:23:00,35.3,26.1,29.67,West,273,3.5,3.5,69,0.00,OVC,,0.00,WeatherDisplay:10.37,2013-03-05 01:23:00,
2013-03-04 20:28:00,35.2,26.0,29.67,NNW,337,2.3,2.3,69,0.00,OVC,,0.00,WeatherDisplay:10.37,2013-03-05 01:28:00,
2013-03-04 20:33:00,35.2,26.0,29.67,NNE,24,15.0,15.0,69,0.00,OVC,,0.00,WeatherDisplay:10.37,2013-03-05 01:33:00,
2013-03-04 20:38:00,35.1,25.9,29.67,North,5,10.4,10.4,69,0.00,OVC,,0.00,WeatherDisplay:10.37,2013-03-05 01:38:00,
2013-03-04 20:43:00,35.0,25.5,29.68,NE,52,11.5,11.5,68,0.00,OVC,,0.00,WeatherDisplay:10.37,2013-03-05 01:43:00,
2013-03-04 20:48:00,35.0,25.9,29.68,NW,318,2.3,2.3,69,0.00,OVC,,0.00,WeatherDisplay:10.37,2013-03-05 01:48:00,
2013-03-04 20:53:00,35.0,25.9,29.68,NNW,336,6.9,6.9,69,0.00,OVC,,0.00,WeatherDisplay:10.37,2013-03-05 01:53:00,
2013-03-04 20:58:00,34.9,25.8,29.67,NNE,20,5.0,5.0,69,0.00,OVC,,0.00,WeatherDisplay:10.37,2013-03-05 01:58:00,
2013-03-04 21:03:00,34.8,25.7,29.67,NNW,340,11.5,11.5,69,0.00,OVC,,0.00,WeatherDisplay:10.37,2013-03-05 02:03:00,
2013-03-04 21:08:00,34.8,25.7,29.67,North,360,5.0,5.0,69,0.00,OVC,,0.00,WeatherDisplay:10.37,2013-03-05 02:08:00,
2013-03-04 21:13:00,34.7,25.9,29.67,North,355,10.4,10.4,70,0.00,OVC,,0.00,WeatherDisplay:10.37,2013-03-05 02:13:00,
2013-03-04 21:18:00,34.6,25.8,29.68,North,5,4.6,4.6,70,0.00,OVC,,0.00,WeatherDisplay:10.37,2013-03-05 02:18:00,
2013-03-04 21:23:00,34.6,25.8,29.68,WNW,292,6.9,6.9,70,0.00,OVC,,0.00,WeatherDisplay:10.37,2013-03-05 02:23:00,
2013-03-04 21:28:00,34.6,25.8,29.68,NNW,333,2.3,2.3,70,0.00,OVC,,0.00,WeatherDisplay:10.37,2013-03-05 02:28:00,
2013-03-04 21:33:00,34.6,25.8,29.68,North,355,3.5,3.5,70,0.00,OVC,,0.00,WeatherDisplay:10.37,2013-03-05 02:33:00,
2013-03-04 21:38:00,34.6,26.2,29.68,West,280,3.5,3.5,71,0.00,OVC,,0.00,WeatherDisplay:10.37,2013-03-05 02:38:00,
2013-03-04 21:43:00,34.6,25.8,29.68,NW,325,9.2,9.2,70,0.00,OVC,,0.00,WeatherDisplay:10.37,2013-03-05 02:43:00,
2013-03-04 21:48:00,34.6,25.8,29.68,ENE,61,2.3,2.3,70,0.00,OVC,,0.00,WeatherDisplay:10.37,2013-03-05 02:48:00,
2013-03-04 21:53:00,34.6,25.8,29.68,North,350,6.0,6.0,70,0.00,OVC,,0.00,WeatherDisplay:10.37,2013-03-05 02:53:00,
2013-03-04 21:58:00,34.6,25.8,29.68,West,279,5.0,5.0,70,0.00,OVC,,0.00,WeatherDisplay:10.37,2013-03-05 02:58:00,
2013-03-04 22:03:00,34.6,25.8,29.68,NNE,13,11.0,11.0,70,0.00,OVC,,0.00,WeatherDisplay:10.37,2013-03-05 03:03:00,
2013-03-04 22:08:00,34.6,25.8,29.68,NNE,13,3.5,3.5,70,0.00,OVC,,0.00,WeatherDisplay:10.37,2013-03-05 03:08:00,
2013-03-04 22:13:00,34.7,25.9,29.68,WNW,294,3.5,3.5,70,0.00,OVC,,0.00,WeatherDisplay:10.37,2013-03-05 03:13:00,
2013-03-04 22:18:00,34.7,25.9,29.68,North,9,4.6,4.6,70,0.00,OVC,,0.00,WeatherDisplay:10.37,2013-03-05 03:18:00,
2013-03-04 22:33:00,34.5,26.1,29.69,North,357,3.0,15.0,71,0.00,CLR,,0.00,WeatherDisplay:10.37,2013-03-05 03:33:00,
2013-03-04 22:38:00,34.5,26.1,29.69,North,358,3.0,15.0,71,0.00,CLR,,0.00,WeatherDisplay:10.37,2013-03-05 03:38:00,
2013-03-04 22:43:00,34.5,26.1,29.69,North,0,3.0,15.0,71,0.00,CLR,,0.00,WeatherDisplay:10.37,2013-03-05 03:43:00,
2013-03-04 22:48:00,34.5,26.1,29.69,North,0,3.0,15.0,71,0.00,CLR,,0.00,WeatherDisplay:10.37,2013-03-05 03:48:00,
2013-03-04 22:53:00,34.5,26.1,29.69,North,0,3.0,15.0,71,0.00,CLR,,0.00,WeatherDisplay:10.37,2013-03-05 03:53:00,
2013-03-04 22:58:00,34.5,26.1,29.69,North,0,3.0,15.0,71,0.00,CLR,,0.00,WeatherDisplay:10.37,2013-03-05 03:58:00,
2013-03-04 23:33:00,34.1,26.0,29.70,North,352,3.0,15.0,72,0.00,CLR,,0.00,WeatherDisplay:10.37,2013-03-05 04:33:00,
2013-03-04 23:38:00,34.1,26.0,29.70,NNW,340,3.0,13.0,72,0.00,CLR,,0.00,WeatherDisplay:10.37,2013-03-05 04:38:00,
2013-03-04 23:43:00,34.1,26.0,29.70,NNW,338,3.0,13.0,72,0.00,CLR,,0.00,WeatherDisplay:10.37,2013-03-05 04:43:00,
2013-03-04 23:48:00,34.1,26.0,29.70,NNW,338,3.0,13.0,72,0.00,CLR,,0.00,WeatherDisplay:10.37,2013-03-05 04:48:00,
2013-03-04 23:53:00,34.1,26.0,29.70,NNW,338,3.0,13.0,72,0.00,CLR,,0.00,WeatherDisplay:10.37,2013-03-05 04:53:00,
2013-03-04 23:58:00,34.1,26.0,29.70,NNW,338,3.0,13.0,72,0.00,CLR,,0.00,WeatherDisplay:10.37,2013-03-05 04:58:00,